sensor_id;sensor_type;location;lat;lon;timestamp;P1;durP1;ratioP1;P2;durP2;ratioP2
10248;SDS011;5169;50.560;9.714;2022-12-18T00:01:04;11.80;;;7.63;;
10248;SDS011;5169;50.560;9.714;2022-12-18T00:03:38;14.70;;;8.40;;
10248;SDS011;5169;50.560;9.714;2022-12-18T00:06:03;11.93;;;8.00;;
10248;SDS011;5169;50.560;9.714;2022-12-18T00:08:29;12.03;;;7.93;;
10248;SDS011;5169;50.560;9.714;2022-12-18T00:11:02;13.70;;;8.07;;
10248;SDS011;5169;50.560;9.714;2022-12-18T00:13:33;14.23;;;7.93;;
10248;SDS011;5169;50.560;9.714;2022-12-18T00:16:06;16.17;;;7.77;;
10248;SDS011;5169;50.560;9.714;2022-12-18T00:18:35;16.07;;;9.10;;
10248;SDS011;5169;50.560;9.714;2022-12-18T00:21:04;17.43;;;9.47;;
10248;SDS011;5169;50.560;9.714;2022-12-18T00:23:31;16.40;;;9.67;;
10248;SDS011;5169;50.560;9.714;2022-12-18T00:26:02;10.27;;;7.40;;
10248;SDS011;5169;50.560;9.714;2022-12-18T00:28:32;12.43;;;7.50;;
10248;SDS011;5169;50.560;9.714;2022-12-18T00:31:02;9.17;;;6.70;;
10248;SDS011;5169;50.560;9.714;2022-12-18T00:33:31;9.40;;;6.10;;
10248;SDS011;5169;50.560;9.714;2022-12-18T00:36:04;9.80;;;5.67;;
10248;SDS011;5169;50.560;9.714;2022-12-18T00:38:34;7.97;;;5.93;;
10248;SDS011;5169;50.560;9.714;2022-12-18T00:41:00;8.63;;;5.60;;
10248;SDS011;5169;50.560;9.714;2022-12-18T00:43:25;7.03;;;4.70;;
10248;SDS011;5169;50.560;9.714;2022-12-18T00:45:54;5.33;;;3.77;;
10248;SDS011;5169;50.560;9.714;2022-12-18T00:48:24;6.40;;;4.10;;
10248;SDS011;5169;50.560;9.714;2022-12-18T00:50:50;6.30;;;3.67;;
10248;SDS011;5169;50.560;9.714;2022-12-18T00:53:19;5.87;;;3.80;;
10248;SDS011;5169;50.560;9.714;2022-12-18T00:55:47;5.83;;;3.47;;
10248;SDS011;5169;50.560;9.714;2022-12-18T00:58:13;7.30;;;3.90;;
10248;SDS011;5169;50.560;9.714;2022-12-18T01:00:41;4.97;;;3.10;;
10248;SDS011;5169;50.560;9.714;2022-12-18T01:03:07;6.60;;;3.70;;
10248;SDS011;5169;50.560;9.714;2022-12-18T01:05:34;12.87;;;8.27;;
10248;SDS011;5169;50.560;9.714;2022-12-18T01:08:05;14.57;;;9.23;;
10248;SDS011;5169;50.560;9.714;2022-12-18T01:10:30;18.90;;;11.17;;
10248;SDS011;5169;50.560;9.714;2022-12-18T01:12:56;16.20;;;10.60;;
10248;SDS011;5169;50.560;9.714;2022-12-18T01:15:22;8.90;;;6.30;;
10248;SDS011;5169;50.560;9.714;2022-12-18T01:17:47;12.87;;;7.27;;
10248;SDS011;5169;50.560;9.714;2022-12-18T01:20:13;15.73;;;8.87;;
10248;SDS011;5169;50.560;9.714;2022-12-18T01:22:39;11.30;;;6.60;;
10248;SDS011;5169;50.560;9.714;2022-12-18T01:25:05;12.60;;;6.77;;
10248;SDS011;5169;50.560;9.714;2022-12-18T01:27:32;12.27;;;8.00;;
10248;SDS011;5169;50.560;9.714;2022-12-18T01:30:01;13.47;;;8.40;;
10248;SDS011;5169;50.560;9.714;2022-12-18T01:32:29;13.70;;;7.67;;
10248;SDS011;5169;50.560;9.714;2022-12-18T01:34:55;14.53;;;7.90;;
10248;SDS011;5169;50.560;9.714;2022-12-18T01:37:21;16.03;;;9.63;;
10248;SDS011;5169;50.560;9.714;2022-12-18T01:39:52;14.67;;;8.37;;
10248;SDS011;5169;50.560;9.714;2022-12-18T01:42:20;16.33;;;9.67;;
10248;SDS011;5169;50.560;9.714;2022-12-18T01:47:33;16.93;;;10.13;;
10248;SDS011;5169;50.560;9.714;2022-12-18T01:55:48;12.53;;;7.47;;
10248;SDS011;5169;50.560;9.714;2022-12-18T01:58:20;9.90;;;5.63;;
10248;SDS011;5169;50.560;9.714;2022-12-18T02:01:08;7.60;;;5.00;;
10248;SDS011;5169;50.560;9.714;2022-12-18T02:03:34;8.03;;;5.20;;
10248;SDS011;5169;50.560;9.714;2022-12-18T02:08:28;8.70;;;5.87;;
10248;SDS011;5169;50.560;9.714;2022-12-18T02:14:23;9.30;;;5.57;;
10248;SDS011;5169;50.560;9.714;2022-12-18T02:17:07;9.93;;;5.90;;
10248;SDS011;5169;50.560;9.714;2022-12-18T02:28:23;9.37;;;6.10;;
10248;SDS011;5169;50.560;9.714;2022-12-18T02:30:57;12.57;;;5.90;;
10248;SDS011;5169;50.560;9.714;2022-12-18T02:33:26;9.40;;;5.50;;
10248;SDS011;5169;50.560;9.714;2022-12-18T02:35:53;9.67;;;5.93;;
10248;SDS011;5169;50.560;9.714;2022-12-18T02:38:27;9.60;;;5.47;;
10248;SDS011;5169;50.560;9.714;2022-12-18T02:41:01;8.30;;;5.33;;
10248;SDS011;5169;50.560;9.714;2022-12-18T02:43:28;7.77;;;5.17;;
10248;SDS011;5169;50.560;9.714;2022-12-18T02:45:59;10.47;;;5.97;;
10248;SDS011;5169;50.560;9.714;2022-12-18T02:48:31;11.60;;;7.13;;
10248;SDS011;5169;50.560;9.714;2022-12-18T02:53:56;14.70;;;9.13;;
10248;SDS011;5169;50.560;9.714;2022-12-18T02:56:36;16.10;;;9.27;;
10248;SDS011;5169;50.560;9.714;2022-12-18T02:59:14;16.07;;;9.20;;
10248;SDS011;5169;50.560;9.714;2022-12-18T03:01:55;16.37;;;9.67;;
10248;SDS011;5169;50.560;9.714;2022-12-18T03:04:42;17.57;;;9.67;;
10248;SDS011;5169;50.560;9.714;2022-12-18T03:07:27;16.27;;;8.30;;
10248;SDS011;5169;50.560;9.714;2022-12-18T03:10:00;16.60;;;8.73;;
10248;SDS011;5169;50.560;9.714;2022-12-18T03:12:31;14.30;;;8.37;;
10248;SDS011;5169;50.560;9.714;2022-12-18T03:15:09;13.53;;;8.30;;
10248;SDS011;5169;50.560;9.714;2022-12-18T03:17:50;15.07;;;8.97;;
10248;SDS011;5169;50.560;9.714;2022-12-18T03:20:24;13.93;;;8.90;;
10248;SDS011;5169;50.560;9.714;2022-12-18T03:23:11;13.50;;;9.03;;
10248;SDS011;5169;50.560;9.714;2022-12-18T03:25:45;14.47;;;9.37;;
10248;SDS011;5169;50.560;9.714;2022-12-18T03:28:18;16.50;;;9.33;;
10248;SDS011;5169;50.560;9.714;2022-12-18T03:30:46;15.57;;;9.20;;
10248;SDS011;5169;50.560;9.714;2022-12-18T03:33:21;16.00;;;9.17;;
10248;SDS011;5169;50.560;9.714;2022-12-18T03:36:01;14.57;;;8.90;;
10248;SDS011;5169;50.560;9.714;2022-12-18T03:38:27;14.87;;;8.80;;
10248;SDS011;5169;50.560;9.714;2022-12-18T03:40:59;12.17;;;7.23;;
10248;SDS011;5169;50.560;9.714;2022-12-18T03:46:47;12.90;;;7.03;;
10248;SDS011;5169;50.560;9.714;2022-12-18T03:49:34;9.57;;;6.40;;
10248;SDS011;5169;50.560;9.714;2022-12-18T03:52:11;9.50;;;6.47;;
10248;SDS011;5169;50.560;9.714;2022-12-18T03:54:50;9.03;;;6.33;;
10248;SDS011;5169;50.560;9.714;2022-12-18T03:57:24;11.57;;;6.37;;
10248;SDS011;5169;50.560;9.714;2022-12-18T04:00:12;9.50;;;5.87;;
10248;SDS011;5169;50.560;9.714;2022-12-18T04:02:48;11.00;;;7.00;;
10248;SDS011;5169;50.560;9.714;2022-12-18T04:05:21;10.13;;;6.67;;
10248;SDS011;5169;50.560;9.714;2022-12-18T04:07:49;10.97;;;6.67;;
10248;SDS011;5169;50.560;9.714;2022-12-18T04:10:26;12.50;;;6.33;;
10248;SDS011;5169;50.560;9.714;2022-12-18T04:12:52;11.33;;;6.33;;
10248;SDS011;5169;50.560;9.714;2022-12-18T04:15:24;10.90;;;5.73;;
10248;SDS011;5169;50.560;9.714;2022-12-18T04:17:52;11.87;;;6.67;;
10248;SDS011;5169;50.560;9.714;2022-12-18T04:20:21;8.57;;;5.43;;
10248;SDS011;5169;50.560;9.714;2022-12-18T04:22:49;8.60;;;5.37;;
10248;SDS011;5169;50.560;9.714;2022-12-18T04:25:26;7.10;;;4.87;;
10248;SDS011;5169;50.560;9.714;2022-12-18T04:27:55;8.83;;;5.20;;
10248;SDS011;5169;50.560;9.714;2022-12-18T04:30:21;9.10;;;5.90;;
10248;SDS011;5169;50.560;9.714;2022-12-18T04:32:46;8.33;;;5.70;;
10248;SDS011;5169;50.560;9.714;2022-12-18T04:35:12;13.10;;;7.27;;
10248;SDS011;5169;50.560;9.714;2022-12-18T04:37:41;10.37;;;7.33;;
10248;SDS011;5169;50.560;9.714;2022-12-18T04:40:06;14.27;;;8.70;;
10248;SDS011;5169;50.560;9.714;2022-12-18T04:42:33;15.10;;;8.50;;
10248;SDS011;5169;50.560;9.714;2022-12-18T04:44:59;12.03;;;8.07;;
10248;SDS011;5169;50.560;9.714;2022-12-18T04:47:28;14.77;;;7.73;;
10248;SDS011;5169;50.560;9.714;2022-12-18T04:49:53;10.40;;;6.47;;
10248;SDS011;5169;50.560;9.714;2022-12-18T04:52:19;10.83;;;6.23;;
10248;SDS011;5169;50.560;9.714;2022-12-18T04:54:45;14.73;;;8.23;;
10248;SDS011;5169;50.560;9.714;2022-12-18T04:57:10;15.53;;;8.27;;
10248;SDS011;5169;50.560;9.714;2022-12-18T04:59:36;14.97;;;8.67;;
10248;SDS011;5169;50.560;9.714;2022-12-18T05:02:04;12.90;;;7.97;;
10248;SDS011;5169;50.560;9.714;2022-12-18T05:04:30;13.60;;;8.10;;
10248;SDS011;5169;50.560;9.714;2022-12-18T05:06:58;13.17;;;8.03;;
10248;SDS011;5169;50.560;9.714;2022-12-18T05:09:28;10.37;;;7.97;;
10248;SDS011;5169;50.560;9.714;2022-12-18T05:11:54;14.67;;;8.03;;
10248;SDS011;5169;50.560;9.714;2022-12-18T05:14:20;13.90;;;7.97;;
10248;SDS011;5169;50.560;9.714;2022-12-18T05:16:48;13.00;;;8.33;;
10248;SDS011;5169;50.560;9.714;2022-12-18T05:19:13;12.30;;;7.53;;
10248;SDS011;5169;50.560;9.714;2022-12-18T05:21:39;11.60;;;7.70;;
10248;SDS011;5169;50.560;9.714;2022-12-18T05:24:04;12.27;;;7.03;;
10248;SDS011;5169;50.560;9.714;2022-12-18T05:26:33;10.67;;;6.90;;
10248;SDS011;5169;50.560;9.714;2022-12-18T05:28:59;12.47;;;6.83;;
10248;SDS011;5169;50.560;9.714;2022-12-18T05:31:24;11.60;;;6.10;;
10248;SDS011;5169;50.560;9.714;2022-12-18T05:33:50;11.87;;;6.80;;
10248;SDS011;5169;50.560;9.714;2022-12-18T05:36:15;10.97;;;6.37;;
10248;SDS011;5169;50.560;9.714;2022-12-18T05:38:41;10.60;;;6.40;;
10248;SDS011;5169;50.560;9.714;2022-12-18T05:41:13;9.67;;;6.47;;
10248;SDS011;5169;50.560;9.714;2022-12-18T05:43:40;11.23;;;6.87;;
10248;SDS011;5169;50.560;9.714;2022-12-18T05:46:06;12.17;;;6.73;;
10248;SDS011;5169;50.560;9.714;2022-12-18T05:48:34;10.10;;;6.70;;
10248;SDS011;5169;50.560;9.714;2022-12-18T05:51:06;12.43;;;6.37;;
10248;SDS011;5169;50.560;9.714;2022-12-18T05:53:39;9.23;;;6.43;;
10248;SDS011;5169;50.560;9.714;2022-12-18T05:56:06;9.60;;;6.30;;
10248;SDS011;5169;50.560;9.714;2022-12-18T05:58:34;11.90;;;6.63;;
10248;SDS011;5169;50.560;9.714;2022-12-18T06:01:07;9.47;;;6.37;;
10248;SDS011;5169;50.560;9.714;2022-12-18T06:03:41;10.20;;;6.27;;
10248;SDS011;5169;50.560;9.714;2022-12-18T06:06:15;10.17;;;6.17;;
10248;SDS011;5169;50.560;9.714;2022-12-18T06:08:56;12.27;;;7.00;;
10248;SDS011;5169;50.560;9.714;2022-12-18T06:11:26;8.87;;;5.83;;
10248;SDS011;5169;50.560;9.714;2022-12-18T06:14:02;7.83;;;5.27;;
10248;SDS011;5169;50.560;9.714;2022-12-18T06:16:32;12.83;;;7.03;;
10248;SDS011;5169;50.560;9.714;2022-12-18T06:18:58;9.07;;;6.40;;
10248;SDS011;5169;50.560;9.714;2022-12-18T06:21:25;9.63;;;5.83;;
10248;SDS011;5169;50.560;9.714;2022-12-18T06:23:57;11.43;;;6.80;;
10248;SDS011;5169;50.560;9.714;2022-12-18T06:26:23;10.33;;;6.87;;
10248;SDS011;5169;50.560;9.714;2022-12-18T06:28:49;11.47;;;7.57;;
10248;SDS011;5169;50.560;9.714;2022-12-18T06:31:15;13.80;;;7.53;;
10248;SDS011;5169;50.560;9.714;2022-12-18T06:33:42;10.97;;;7.43;;
10248;SDS011;5169;50.560;9.714;2022-12-18T06:36:13;12.00;;;7.33;;
10248;SDS011;5169;50.560;9.714;2022-12-18T06:38:43;11.17;;;7.50;;
10248;SDS011;5169;50.560;9.714;2022-12-18T06:43:57;9.87;;;6.37;;
10248;SDS011;5169;50.560;9.714;2022-12-18T06:46:23;11.73;;;7.13;;
10248;SDS011;5169;50.560;9.714;2022-12-18T06:48:54;10.43;;;7.43;;
10248;SDS011;5169;50.560;9.714;2022-12-18T06:51:20;10.63;;;7.17;;
10248;SDS011;5169;50.560;9.714;2022-12-18T06:53:47;12.70;;;7.23;;
10248;SDS011;5169;50.560;9.714;2022-12-18T06:56:13;14.63;;;8.23;;
10248;SDS011;5169;50.560;9.714;2022-12-18T06:58:43;16.43;;;8.80;;
10248;SDS011;5169;50.560;9.714;2022-12-18T07:01:09;21.37;;;8.93;;
10248;SDS011;5169;50.560;9.714;2022-12-18T07:03:41;15.03;;;8.90;;
10248;SDS011;5169;50.560;9.714;2022-12-18T07:06:17;14.87;;;7.93;;
10248;SDS011;5169;50.560;9.714;2022-12-18T07:08:48;15.50;;;8.83;;
10248;SDS011;5169;50.560;9.714;2022-12-18T07:11:15;13.07;;;7.80;;
10248;SDS011;5169;50.560;9.714;2022-12-18T07:13:42;12.93;;;8.03;;
10248;SDS011;5169;50.560;9.714;2022-12-18T07:16:14;14.40;;;7.87;;
10248;SDS011;5169;50.560;9.714;2022-12-18T07:18:47;12.90;;;7.90;;
10248;SDS011;5169;50.560;9.714;2022-12-18T07:21:16;12.87;;;7.77;;
10248;SDS011;5169;50.560;9.714;2022-12-18T07:23:47;12.13;;;7.40;;
10248;SDS011;5169;50.560;9.714;2022-12-18T07:26:19;14.80;;;7.90;;
10248;SDS011;5169;50.560;9.714;2022-12-18T07:28:48;19.17;;;9.10;;
10248;SDS011;5169;50.560;9.714;2022-12-18T07:31:18;18.23;;;10.33;;
10248;SDS011;5169;50.560;9.714;2022-12-18T07:33:53;24.17;;;11.77;;
10248;SDS011;5169;50.560;9.714;2022-12-18T07:36:19;18.90;;;10.80;;
10248;SDS011;5169;50.560;9.714;2022-12-18T07:38:48;18.53;;;9.53;;
10248;SDS011;5169;50.560;9.714;2022-12-18T07:41:17;21.60;;;11.20;;
10248;SDS011;5169;50.560;9.714;2022-12-18T07:43:48;15.33;;;9.23;;
10248;SDS011;5169;50.560;9.714;2022-12-18T07:46:14;13.57;;;8.43;;
10248;SDS011;5169;50.560;9.714;2022-12-18T07:48:43;10.67;;;6.70;;
10248;SDS011;5169;50.560;9.714;2022-12-18T07:51:12;12.53;;;7.30;;
10248;SDS011;5169;50.560;9.714;2022-12-18T07:53:40;11.30;;;7.57;;
10248;SDS011;5169;50.560;9.714;2022-12-18T07:56:07;14.20;;;7.13;;
10248;SDS011;5169;50.560;9.714;2022-12-18T07:58:37;11.03;;;6.33;;
10248;SDS011;5169;50.560;9.714;2022-12-18T08:01:05;12.40;;;6.47;;
10248;SDS011;5169;50.560;9.714;2022-12-18T08:03:33;8.27;;;5.90;;
10248;SDS011;5169;50.560;9.714;2022-12-18T08:06:06;10.43;;;7.20;;
10248;SDS011;5169;50.560;9.714;2022-12-18T08:08:33;11.43;;;6.47;;
10248;SDS011;5169;50.560;9.714;2022-12-18T08:11:02;10.60;;;6.40;;
10248;SDS011;5169;50.560;9.714;2022-12-18T08:13:28;10.13;;;6.90;;
10248;SDS011;5169;50.560;9.714;2022-12-18T08:16:01;11.80;;;7.50;;
10248;SDS011;5169;50.560;9.714;2022-12-18T08:18:28;10.73;;;7.37;;
10248;SDS011;5169;50.560;9.714;2022-12-18T08:20:54;16.47;;;8.37;;
10248;SDS011;5169;50.560;9.714;2022-12-18T08:23:20;14.60;;;8.90;;
10248;SDS011;5169;50.560;9.714;2022-12-18T08:25:46;15.03;;;8.93;;
10248;SDS011;5169;50.560;9.714;2022-12-18T08:28:12;11.27;;;7.33;;
10248;SDS011;5169;50.560;9.714;2022-12-18T08:30:38;14.23;;;8.53;;
10248;SDS011;5169;50.560;9.714;2022-12-18T08:33:04;15.80;;;9.47;;
10248;SDS011;5169;50.560;9.714;2022-12-18T08:35:30;16.90;;;8.90;;
10248;SDS011;5169;50.560;9.714;2022-12-18T08:37:59;14.10;;;8.53;;
10248;SDS011;5169;50.560;9.714;2022-12-18T08:40:24;15.13;;;9.03;;
10248;SDS011;5169;50.560;9.714;2022-12-18T08:42:50;15.07;;;9.60;;
10248;SDS011;5169;50.560;9.714;2022-12-18T08:45:37;19.17;;;11.43;;
10248;SDS011;5169;50.560;9.714;2022-12-18T08:48:02;21.53;;;11.70;;
10248;SDS011;5169;50.560;9.714;2022-12-18T08:50:28;17.23;;;12.50;;
10248;SDS011;5169;50.560;9.714;2022-12-18T08:52:56;19.57;;;12.70;;
10248;SDS011;5169;50.560;9.714;2022-12-18T08:55:21;20.53;;;12.37;;
10248;SDS011;5169;50.560;9.714;2022-12-18T08:57:50;18.40;;;12.47;;
10248;SDS011;5169;50.560;9.714;2022-12-18T09:00:18;20.53;;;13.07;;
10248;SDS011;5169;50.560;9.714;2022-12-18T09:02:43;17.17;;;10.83;;
10248;SDS011;5169;50.560;9.714;2022-12-18T09:05:09;19.70;;;12.90;;
10248;SDS011;5169;50.560;9.714;2022-12-18T09:07:35;23.77;;;16.40;;
10248;SDS011;5169;50.560;9.714;2022-12-18T09:10:01;24.93;;;16.73;;
10248;SDS011;5169;50.560;9.714;2022-12-18T09:12:27;27.07;;;19.50;;
10248;SDS011;5169;50.560;9.714;2022-12-18T09:14:53;33.17;;;20.40;;
10248;SDS011;5169;50.560;9.714;2022-12-18T09:17:21;29.97;;;21.63;;
10248;SDS011;5169;50.560;9.714;2022-12-18T09:19:47;33.23;;;21.23;;
10248;SDS011;5169;50.560;9.714;2022-12-18T09:22:12;28.77;;;20.67;;
10248;SDS011;5169;50.560;9.714;2022-12-18T09:24:40;32.90;;;21.43;;
10248;SDS011;5169;50.560;9.714;2022-12-18T09:27:11;30.80;;;19.77;;
10248;SDS011;5169;50.560;9.714;2022-12-18T09:29:39;31.87;;;20.03;;
10248;SDS011;5169;50.560;9.714;2022-12-18T09:32:04;33.90;;;22.70;;
10248;SDS011;5169;50.560;9.714;2022-12-18T09:34:33;23.97;;;16.83;;
10248;SDS011;5169;50.560;9.714;2022-12-18T09:37:00;24.83;;;16.77;;
10248;SDS011;5169;50.560;9.714;2022-12-18T09:39:26;20.53;;;14.43;;
10248;SDS011;5169;50.560;9.714;2022-12-18T09:41:53;23.63;;;15.20;;
10248;SDS011;5169;50.560;9.714;2022-12-18T09:47:11;21.77;;;14.80;;
10248;SDS011;5169;50.560;9.714;2022-12-18T09:50:48;21.20;;;15.47;;
10248;SDS011;5169;50.560;9.714;2022-12-18T09:52:56;22.83;;;16.87;;
10248;SDS011;5169;50.560;9.714;2022-12-18T09:57:56;25.33;;;19.00;;
10248;SDS011;5169;50.560;9.714;2022-12-18T10:00:27;27.70;;;18.30;;
10248;SDS011;5169;50.560;9.714;2022-12-18T10:02:59;30.27;;;19.77;;
10248;SDS011;5169;50.560;9.714;2022-12-18T10:10:47;29.00;;;19.73;;
10248;SDS011;5169;50.560;9.714;2022-12-18T10:16:06;27.47;;;19.03;;
10248;SDS011;5169;50.560;9.714;2022-12-18T10:18:58;27.70;;;20.50;;
10248;SDS011;5169;50.560;9.714;2022-12-18T10:21:51;28.77;;;20.53;;
10248;SDS011;5169;50.560;9.714;2022-12-18T10:27:29;28.47;;;19.70;;
10248;SDS011;5169;50.560;9.714;2022-12-18T10:30:04;30.33;;;21.33;;
10248;SDS011;5169;50.560;9.714;2022-12-18T10:32:46;27.70;;;20.27;;
10248;SDS011;5169;50.560;9.714;2022-12-18T10:35:23;28.97;;;21.47;;
10248;SDS011;5169;50.560;9.714;2022-12-18T10:38:04;29.73;;;20.80;;
10248;SDS011;5169;50.560;9.714;2022-12-18T10:43:23;26.07;;;19.80;;
10248;SDS011;5169;50.560;9.714;2022-12-18T10:46:24;28.43;;;20.80;;
10248;SDS011;5169;50.560;9.714;2022-12-18T10:48:55;29.20;;;21.30;;
10248;SDS011;5169;50.560;9.714;2022-12-18T10:51:23;31.53;;;22.37;;
10248;SDS011;5169;50.560;9.714;2022-12-18T10:53:54;30.10;;;22.63;;
10248;SDS011;5169;50.560;9.714;2022-12-18T10:56:27;29.93;;;21.00;;
10248;SDS011;5169;50.560;9.714;2022-12-18T10:59:01;28.63;;;19.40;;
10248;SDS011;5169;50.560;9.714;2022-12-18T11:01:27;28.83;;;19.87;;
10248;SDS011;5169;50.560;9.714;2022-12-18T11:04:09;25.93;;;15.67;;
10248;SDS011;5169;50.560;9.714;2022-12-18T11:06:54;25.67;;;14.97;;
10248;SDS011;5169;50.560;9.714;2022-12-18T11:09:23;24.47;;;15.37;;
10248;SDS011;5169;50.560;9.714;2022-12-18T11:11:51;23.67;;;14.07;;
10248;SDS011;5169;50.560;9.714;2022-12-18T11:16:48;21.43;;;12.77;;
10248;SDS011;5169;50.560;9.714;2022-12-18T11:21:50;19.57;;;12.97;;
10248;SDS011;5169;50.560;9.714;2022-12-18T11:27:03;23.67;;;13.00;;
10248;SDS011;5169;50.560;9.714;2022-12-18T11:29:37;23.63;;;14.47;;
10248;SDS011;5169;50.560;9.714;2022-12-18T11:34:59;19.60;;;12.80;;
10248;SDS011;5169;50.560;9.714;2022-12-18T11:37:30;19.73;;;12.73;;
10248;SDS011;5169;50.560;9.714;2022-12-18T11:40:17;17.97;;;12.23;;
10248;SDS011;5169;50.560;9.714;2022-12-18T11:42:55;19.77;;;12.10;;
10248;SDS011;5169;50.560;9.714;2022-12-18T11:45:34;19.20;;;11.73;;
10248;SDS011;5169;50.560;9.714;2022-12-18T11:48:26;17.67;;;11.97;;
10248;SDS011;5169;50.560;9.714;2022-12-18T11:50:58;20.07;;;12.33;;
10248;SDS011;5169;50.560;9.714;2022-12-18T11:53:27;21.63;;;12.77;;
10248;SDS011;5169;50.560;9.714;2022-12-18T11:58:49;28.77;;;17.97;;
10248;SDS011;5169;50.560;9.714;2022-12-18T12:01:42;26.93;;;15.13;;
10248;SDS011;5169;50.560;9.714;2022-12-18T12:15:34;28.77;;;18.67;;
10248;SDS011;5169;50.560;9.714;2022-12-18T12:34:26;17.47;;;12.43;;
10248;SDS011;5169;50.560;9.714;2022-12-18T12:39:58;20.63;;;12.97;;
10248;SDS011;5169;50.560;9.714;2022-12-18T12:45:45;32.57;;;21.43;;
10248;SDS011;5169;50.560;9.714;2022-12-18T12:48:25;29.03;;;18.83;;
10248;SDS011;5169;50.560;9.714;2022-12-18T12:53:50;41.23;;;29.03;;
10248;SDS011;5169;50.560;9.714;2022-12-18T12:56:21;31.93;;;22.20;;
10248;SDS011;5169;50.560;9.714;2022-12-18T13:01:49;29.27;;;20.57;;
10248;SDS011;5169;50.560;9.714;2022-12-18T13:09:32;25.70;;;16.00;;
10248;SDS011;5169;50.560;9.714;2022-12-18T13:12:12;23.87;;;15.07;;
10248;SDS011;5169;50.560;9.714;2022-12-18T13:15:11;22.83;;;15.50;;
10248;SDS011;5169;50.560;9.714;2022-12-18T13:18:03;23.30;;;16.33;;
10248;SDS011;5169;50.560;9.714;2022-12-18T13:28:50;27.53;;;17.77;;
10248;SDS011;5169;50.560;9.714;2022-12-18T13:36:57;28.10;;;16.37;;
10248;SDS011;5169;50.560;9.714;2022-12-18T13:39:57;26.37;;;16.13;;
10248;SDS011;5169;50.560;9.714;2022-12-18T13:45:40;27.67;;;16.53;;
10248;SDS011;5169;50.560;9.714;2022-12-18T13:48:16;25.93;;;16.53;;
10248;SDS011;5169;50.560;9.714;2022-12-18T13:50:55;18.57;;;12.73;;
10248;SDS011;5169;50.560;9.714;2022-12-18T13:53:28;17.47;;;11.43;;
10248;SDS011;5169;50.560;9.714;2022-12-18T13:56:05;19.37;;;12.00;;
10248;SDS011;5169;50.560;9.714;2022-12-18T13:58:33;19.20;;;11.80;;
10248;SDS011;5169;50.560;9.714;2022-12-18T14:00:59;20.37;;;13.00;;
10248;SDS011;5169;50.560;9.714;2022-12-18T14:03:29;19.30;;;12.87;;
10248;SDS011;5169;50.560;9.714;2022-12-18T14:05:56;22.50;;;13.27;;
10248;SDS011;5169;50.560;9.714;2022-12-18T14:08:32;18.10;;;11.50;;
10248;SDS011;5169;50.560;9.714;2022-12-18T14:11:00;24.53;;;18.07;;
10248;SDS011;5169;50.560;9.714;2022-12-18T14:13:37;23.40;;;16.13;;
10248;SDS011;5169;50.560;9.714;2022-12-18T14:16:06;20.83;;;12.53;;
10248;SDS011;5169;50.560;9.714;2022-12-18T14:18:43;16.77;;;11.33;;
10248;SDS011;5169;50.560;9.714;2022-12-18T14:21:21;19.23;;;11.83;;
10248;SDS011;5169;50.560;9.714;2022-12-18T14:24:02;25.67;;;13.33;;
10248;SDS011;5169;50.560;9.714;2022-12-18T14:26:30;19.63;;;12.57;;
10248;SDS011;5169;50.560;9.714;2022-12-18T14:28:59;29.23;;;17.57;;
10248;SDS011;5169;50.560;9.714;2022-12-18T14:31:29;24.03;;;15.07;;
10248;SDS011;5169;50.560;9.714;2022-12-18T14:33:55;25.43;;;15.27;;
10248;SDS011;5169;50.560;9.714;2022-12-18T14:36:25;28.00;;;16.63;;
10248;SDS011;5169;50.560;9.714;2022-12-18T14:38:58;20.63;;;13.20;;
10248;SDS011;5169;50.560;9.714;2022-12-18T14:41:25;18.13;;;11.53;;
10248;SDS011;5169;50.560;9.714;2022-12-18T14:43:56;19.63;;;13.37;;
10248;SDS011;5169;50.560;9.714;2022-12-18T14:46:35;22.07;;;13.70;;
10248;SDS011;5169;50.560;9.714;2022-12-18T14:51:50;19.40;;;11.83;;
10248;SDS011;5169;50.560;9.714;2022-12-18T14:54:28;18.07;;;11.00;;
10248;SDS011;5169;50.560;9.714;2022-12-18T14:57:06;18.67;;;12.03;;
10248;SDS011;5169;50.560;9.714;2022-12-18T14:59:47;24.33;;;13.70;;
10248;SDS011;5169;50.560;9.714;2022-12-18T15:02:16;25.73;;;15.57;;
10248;SDS011;5169;50.560;9.714;2022-12-18T15:07:38;22.07;;;13.67;;
10248;SDS011;5169;50.560;9.714;2022-12-18T15:12:44;22.37;;;13.27;;
10248;SDS011;5169;50.560;9.714;2022-12-18T15:18:19;20.20;;;12.90;;
10248;SDS011;5169;50.560;9.714;2022-12-18T15:23:17;18.37;;;12.37;;
10248;SDS011;5169;50.560;9.714;2022-12-18T15:25:58;16.17;;;11.40;;
10248;SDS011;5169;50.560;9.714;2022-12-18T15:33:37;21.03;;;12.60;;
10248;SDS011;5169;50.560;9.714;2022-12-18T15:36:05;19.67;;;12.37;;
10248;SDS011;5169;50.560;9.714;2022-12-18T15:38:36;21.13;;;12.00;;
10248;SDS011;5169;50.560;9.714;2022-12-18T15:41:04;18.87;;;12.30;;
10248;SDS011;5169;50.560;9.714;2022-12-18T15:43:37;18.53;;;12.73;;
10248;SDS011;5169;50.560;9.714;2022-12-18T15:46:04;17.47;;;10.63;;
10248;SDS011;5169;50.560;9.714;2022-12-18T15:48:34;20.53;;;12.10;;
10248;SDS011;5169;50.560;9.714;2022-12-18T15:51:04;17.13;;;10.50;;
10248;SDS011;5169;50.560;9.714;2022-12-18T15:53:34;20.13;;;11.80;;
10248;SDS011;5169;50.560;9.714;2022-12-18T15:55:59;17.77;;;11.87;;
10248;SDS011;5169;50.560;9.714;2022-12-18T15:58:44;16.57;;;10.30;;
10248;SDS011;5169;50.560;9.714;2022-12-18T16:01:11;15.67;;;10.57;;
10248;SDS011;5169;50.560;9.714;2022-12-18T16:03:51;17.63;;;10.87;;
10248;SDS011;5169;50.560;9.714;2022-12-18T16:06:16;18.80;;;10.90;;
10248;SDS011;5169;50.560;9.714;2022-12-18T16:08:42;17.87;;;11.53;;
10248;SDS011;5169;50.560;9.714;2022-12-18T16:11:14;19.23;;;12.03;;
10248;SDS011;5169;50.560;9.714;2022-12-18T16:13:44;19.43;;;12.97;;
10248;SDS011;5169;50.560;9.714;2022-12-18T16:16:10;18.60;;;12.10;;
10248;SDS011;5169;50.560;9.714;2022-12-18T16:18:35;20.40;;;12.20;;
10248;SDS011;5169;50.560;9.714;2022-12-18T16:21:04;18.40;;;12.03;;
10248;SDS011;5169;50.560;9.714;2022-12-18T16:23:32;22.87;;;13.40;;
10248;SDS011;5169;50.560;9.714;2022-12-18T16:25:58;20.83;;;13.03;;
10248;SDS011;5169;50.560;9.714;2022-12-18T16:28:24;22.90;;;13.30;;
10248;SDS011;5169;50.560;9.714;2022-12-18T16:30:51;20.83;;;13.30;;
10248;SDS011;5169;50.560;9.714;2022-12-18T16:33:17;20.73;;;13.17;;
10248;SDS011;5169;50.560;9.714;2022-12-18T16:35:50;20.07;;;12.80;;
10248;SDS011;5169;50.560;9.714;2022-12-18T16:38:19;22.37;;;13.37;;
10248;SDS011;5169;50.560;9.714;2022-12-18T16:40:46;20.77;;;12.63;;
10248;SDS011;5169;50.560;9.714;2022-12-18T16:43:31;20.70;;;12.23;;
10248;SDS011;5169;50.560;9.714;2022-12-18T16:45:58;20.00;;;12.07;;
10248;SDS011;5169;50.560;9.714;2022-12-18T16:48:26;19.47;;;11.70;;
10248;SDS011;5169;50.560;9.714;2022-12-18T16:50:56;21.90;;;12.13;;
10248;SDS011;5169;50.560;9.714;2022-12-18T16:53:26;19.03;;;11.53;;
10248;SDS011;5169;50.560;9.714;2022-12-18T16:55:55;22.20;;;11.30;;
10248;SDS011;5169;50.560;9.714;2022-12-18T16:58:21;18.83;;;10.30;;
10248;SDS011;5169;50.560;9.714;2022-12-18T17:00:50;19.17;;;11.50;;
10248;SDS011;5169;50.560;9.714;2022-12-18T17:03:15;19.17;;;11.40;;
10248;SDS011;5169;50.560;9.714;2022-12-18T17:05:41;17.90;;;10.57;;
10248;SDS011;5169;50.560;9.714;2022-12-18T17:08:09;17.10;;;10.57;;
10248;SDS011;5169;50.560;9.714;2022-12-18T17:10:35;19.17;;;9.53;;
10248;SDS011;5169;50.560;9.714;2022-12-18T17:13:00;15.73;;;10.00;;
10248;SDS011;5169;50.560;9.714;2022-12-18T17:15:26;19.03;;;11.17;;
10248;SDS011;5169;50.560;9.714;2022-12-18T17:17:51;16.97;;;10.67;;
10248;SDS011;5169;50.560;9.714;2022-12-18T17:20:17;17.17;;;10.47;;
10248;SDS011;5169;50.560;9.714;2022-12-18T17:22:47;17.53;;;10.83;;
10248;SDS011;5169;50.560;9.714;2022-12-18T17:25:13;21.13;;;11.60;;
10248;SDS011;5169;50.560;9.714;2022-12-18T17:27:41;17.50;;;10.57;;
10248;SDS011;5169;50.560;9.714;2022-12-18T17:30:11;17.27;;;9.90;;